Time;durP1;ratioP1;P1;durP2;ratioP2;P2;SDS_P1;SDS_P2;PMS_P1;PMS_P2;Temp;Humidity;BMP_temperature;BMP_pressure;BME280_temperature;BME280_humidity;BME280_pressure;Samples;Min_cycle;Max_cycle;Signal;HPM_P1;HPM_P2
2024/01/12 06:00:09;;;;;;;48.60;43.53;;;;;;;;;;1748421;28;20464;-76
2024/01/12 06:01:00;;;;;;;47.83;43.03;;;;;;;;;;1748396;28;20817;-76
2024/01/12 06:01:51;;;;;;;48.85;43.85;;;;;;;;;;1748460;28;20690;-76
2024/01/12 06:02:43;;;;;;;50.47;45.10;;;;;;;;;;1741816;28;20230;-75
2024/01/12 06:03:34;;;;;;;49.10;44.20;;;;;;;;;;1741487;28;20207;-76
2024/01/12 06:04:25;;;;;;;48.80;43.85;;;;;;;;;;1746192;28;20244;-77
2024/01/12 06:05:18;;;;;;;48.72;43.60;;;;;;;;;;1745035;28;20656;-77
2024/01/12 06:06:09;;;;;;;49.33;44.13;;;;;;;;;;1743158;28;20593;-77
2024/01/12 06:07:00;;;;;;;45.70;41.08;;;;;;;;;;1743056;28;20904;-78
2024/01/12 06:07:52;;;;;;;46.33;41.53;;;;;;;;;;1746658;28;20285;-77
2024/01/12 06:08:44;;;;;;;46.63;41.95;;;;;;;;;;1741681;28;20203;-77
2024/01/12 06:09:35;;;;;;;43.95;39.55;;;;;;;;;;1741269;28;20203;-77
2024/01/12 06:10:27;;;;;;;45.10;40.58;;;;;;;;;;1748350;28;20221;-77
2024/01/12 06:11:18;;;;;;;44.58;40.17;;;;;;;;;;1748302;28;20199;-77
2024/01/12 06:12:11;;;;;;;44.85;40.25;;;;;;;;;;1742378;28;20210;-77
2024/01/12 06:13:04;;;;;;;48.20;43.10;;;;;;;;;;1741403;28;20239;-76
2024/01/12 06:13:55;;;;;;;47.42;42.63;;;;;;;;;;1746065;28;20210;-76
2024/01/12 06:14:46;;;;;;;46.53;41.92;;;;;;;;;;1748377;28;20202;-76
2024/01/12 06:15:40;;;;;;;44.60;40.10;;;;;;;;;;1748312;28;20198;-76
2024/01/12 06:16:31;;;;;;;45.08;40.28;;;;;;;;;;1748274;28;20230;-76
2024/01/12 06:17:23;;;;;;;44.88;40.40;;;;;;;;;;1744553;28;20647;-77
2024/01/12 06:18:15;;;;;;;45.42;40.92;;;;;;;;;;1746421;28;20222;-77
2024/01/12 06:19:06;;;;;;;45.45;40.75;;;;;;;;;;1747419;28;20247;-77
2024/01/12 06:19:59;;;;;;;44.30;40.00;;;;;;;;;;1747989;28;20199;-78
2024/01/12 06:20:50;;;;;;;45.30;40.72;;;;;;;;;;1748224;28;20294;-78
2024/01/12 06:21:42;;;;;;;46.50;41.80;;;;;;;;;;1748288;28;20206;-78
2024/01/12 06:22:34;;;;;;;47.97;42.80;;;;;;;;;;1748103;28;20210;-78
2024/01/12 06:23:25;;;;;;;47.25;42.55;;;;;;;;;;1746950;28;20545;-78
2024/01/12 06:24:17;;;;;;;45.83;41.33;;;;;;;;;;1748176;28;20207;-78
2024/01/12 06:25:08;;;;;;;46.42;41.75;;;;;;;;;;1745407;28;20222;-79
2024/01/12 06:26:01;;;;;;;47.72;42.90;;;;;;;;;;1741236;28;20207;-78
2024/01/12 06:26:52;;;;;;;48.55;43.70;;;;;;;;;;1742849;28;20234;-78
2024/01/12 06:27:43;;;;;;;46.45;41.83;;;;;;;;;;1748187;28;20210;-79
2024/01/12 06:28:35;;;;;;;46.70;42.17;;;;;;;;;;1748139;28;20199;-79
2024/01/12 06:29:27;;;;;;;46.72;41.92;;;;;;;;;;1740940;28;20619;-78
2024/01/12 06:30:18;;;;;;;45.55;41.13;;;;;;;;;;1741298;28;20203;-78
2024/01/12 06:31:11;;;;;;;46.78;41.85;;;;;;;;;;1746941;28;20206;-79
2024/01/12 06:32:03;;;;;;;46.10;41.33;;;;;;;;;;1748448;28;20205;-79
2024/01/12 06:32:54;;;;;;;45.10;40.65;;;;;;;;;;1743898;28;20723;-79
2024/01/12 06:33:47;;;;;;;46.17;41.20;;;;;;;;;;1741235;28;20225;-78
2024/01/12 06:34:39;;;;;;;44.47;39.95;;;;;;;;;;1743943;28;20214;-79
2024/01/12 06:35:30;;;;;;;44.90;40.45;;;;;;;;;;1745568;28;20205;-77
2024/01/12 06:36:22;;;;;;;45.85;41.00;;;;;;;;;;1741097;28;20277;-77
2024/01/12 06:37:14;;;;;;;44.55;40.15;;;;;;;;;;1740576;28;20211;-77
2024/01/12 06:38:05;;;;;;;44.67;40.28;;;;;;;;;;1740631;28;20199;-77
2024/01/12 06:38:57;;;;;;;43.70;39.08;;;;;;;;;;1747147;28;20209;-77
2024/01/12 06:39:49;;;;;;;44.17;39.58;;;;;;;;;;1747005;28;20237;-77
2024/01/12 06:40:40;;;;;;;45.88;41.25;;;;;;;;;;1747385;28;20217;-77
2024/01/12 06:41:32;;;;;;;44.85;40.42;;;;;;;;;;1745910;28;20286;-77
2024/01/12 06:42:23;;;;;;;44.83;40.30;;;;;;;;;;1744778;28;20213;-77
2024/01/12 06:43:14;;;;;;;44.30;39.60;;;;;;;;;;1747631;28;20233;-77
2024/01/12 06:44:06;;;;;;;45.35;40.75;;;;;;;;;;1745542;28;20198;-78
2024/01/12 06:44:57;;;;;;;45.95;41.40;;;;;;;;;;1740816;28;20203;-76
2024/01/12 06:45:49;;;;;;;46.58;41.83;;;;;;;;;;1744529;28;20202;-76
2024/01/12 06:46:43;;;;;;;44.90;40.33;;;;;;;;;;1748149;28;20201;-78
2024/01/12 06:47:34;;;;;;;45.65;41.03;;;;;;;;;;1747668;28;20290;-77
2024/01/12 06:48:26;;;;;;;45.40;40.65;;;;;;;;;;1741374;28;20203;-77
2024/01/12 06:49:17;;;;;;;45.85;41.17;;;;;;;;;;1740531;28;20207;-75
2024/01/12 06:50:10;;;;;;;46.30;41.28;;;;;;;;;;1745368;28;20199;-76
2024/01/12 06:51:01;;;;;;;45.30;40.60;;;;;;;;;;1747613;28;20203;-76
2024/01/12 06:51:53;;;;;;;45.40;40.88;;;;;;;;;;1744212;28;20712;-76
2024/01/12 06:52:44;;;;;;;48.80;43.65;;;;;;;;;;1740754;28;20227;-76
2024/01/12 06:53:35;;;;;;;50.63;45.30;;;;;;;;;;1742548;28;20209;-77
2024/01/12 06:54:27;;;;;;;54.92;49.03;;;;;;;;;;1747686;28;20267;-77
2024/01/12 06:55:18;;;;;;;54.80;48.90;;;;;;;;;;1744943;28;20205;-76
2024/01/12 06:56:18;;;;;;;55.10;49.05;;;;;;;;;;1747613;28;20194;-76
2024/01/12 06:57:10;;;;;;;53.28;47.78;;;;;;;;;;1747653;28;20272;-77
2024/01/12 06:58:01;;;;;;;54.22;48.45;;;;;;;;;;1741003;28;20191;-75
2024/01/12 06:58:53;;;;;;;54.95;49.15;;;;;;;;;;1740850;28;20798;-76
2024/01/12 06:59:44;;;;;;;51.90;46.78;;;;;;;;;;1745815;28;20202;-77
2024/01/12 07:00:36;;;;;;;50.03;45.10;;;;;;;;;;1747560;28;20198;-77
2024/01/12 07:01:28;;;;;;;48.78;43.67;;;;;;;;;;1744422;28;20195;-75
2024/01/12 07:02:20;;;;;;;48.72;44.00;;;;;;;;;;1741477;28;20214;-75
2024/01/12 07:03:11;;;;;;;49.58;44.42;;;;;;;;;;1746550;28;20210;-75
2024/01/12 07:04:03;;;;;;;47.65;42.85;;;;;;;;;;1748023;28;20808;-75
2024/01/12 07:04:55;;;;;;;48.72;43.85;;;;;;;;;;1746977;28;20203;-75
2024/01/12 07:05:48;;;;;;;46.17;41.67;;;;;;;;;;1741117;28;20544;-76
2024/01/12 07:06:40;;;;;;;44.90;40.30;;;;;;;;;;1741120;28;20207;-75
2024/01/12 07:07:31;;;;;;;45.25;40.60;;;;;;;;;;1747957;28;20666;-74
2024/01/12 07:08:23;;;;;;;45.72;41.08;;;;;;;;;;1744804;28;20198;-74
2024/01/12 07:09:15;;;;;;;45.90;41.20;;;;;;;;;;1741539;28;20195;-75
2024/01/12 07:10:08;;;;;;;45.90;41.28;;;;;;;;;;1742646;28;20692;-75
2024/01/12 07:11:00;;;;;;;46.80;42.00;;;;;;;;;;1743506;28;20202;-75
2024/01/12 07:11:51;;;;;;;44.75;40.08;;;;;;;;;;1740456;28;20203;-75
2024/01/12 07:12:43;;;;;;;44.72;40.10;;;;;;;;;;1743349;28;20303;-75
2024/01/12 07:13:35;;;;;;;47.42;42.58;;;;;;;;;;1748042;28;20206;-75
2024/01/12 07:14:26;;;;;;;45.50;40.65;;;;;;;;;;1746904;28;20190;-75
2024/01/12 07:15:18;;;;;;;46.92;42.28;;;;;;;;;;1741097;28;20199;-75
2024/01/12 07:16:09;;;;;;;45.47;40.78;;;;;;;;;;1741120;28;20446;-75
2024/01/12 07:17:02;;;;;;;44.10;39.50;;;;;;;;;;1746161;28;20230;-75
2024/01/12 07:17:54;;;;;;;44.08;39.85;;;;;;;;;;1744900;28;20236;-75
2024/01/12 07:18:45;;;;;;;46.85;41.95;;;;;;;;;;1742739;28;20587;-75
2024/01/12 07:19:37;;;;;;;45.67;41.08;;;;;;;;;;1747583;28;20701;-75
2024/01/12 07:20:28;;;;;;;47.50;42.80;;;;;;;;;;1744412;28;20590;-75
2024/01/12 07:21:19;;;;;;;46.92;42.33;;;;;;;;;;1740958;28;20203;-75
2024/01/12 07:22:11;;;;;;;43.78;39.38;;;;;;;;;;1744042;28;20278;-75
2024/01/12 07:23:03;;;;;;;43.45;39.08;;;;;;;;;;1747940;28;20231;-75
2024/01/12 07:23:55;;;;;;;43.63;39.22;;;;;;;;;;1743575;28;20237;-76
2024/01/12 07:24:46;;;;;;;44.22;39.83;;;;;;;;;;1748029;28;20202;-77
2024/01/12 07:25:38;;;;;;;44.97;40.45;;;;;;;;;;1747955;28;20199;-75
2024/01/12 07:26:30;;;;;;;42.25;38.05;;;;;;;;;;1747924;28;20202;-77
2024/01/12 07:27:22;;;;;;;44.28;39.70;;;;;;;;;;1748137;28;20578;-77
2024/01/12 07:28:13;;;;;;;44.85;40.30;;;;;;;;;;1743174;28;20204;-75
2024/01/12 07:29:05;;;;;;;43.90;39.42;;;;;;;;;;1740543;28;20199;-75
2024/01/12 07:29:57;;;;;;;44.70;40.03;;;;;;;;;;1743696;28;20194;-75
2024/01/12 07:30:48;;;;;;;42.75;38.53;;;;;;;;;;1747961;28;20203;-75
2024/01/12 07:31:39;;;;;;;44.22;39.83;;;;;;;;;;1744576;28;20244;-75
2024/01/12 07:32:31;;;;;;;43.30;39.00;;;;;;;;;;1740992;28;20203;-74
2024/01/12 07:33:23;;;;;;;45.03;40.63;;;;;;;;;;1741046;28;20203;-74
2024/01/12 07:34:14;;;;;;;45.58;41.05;;;;;;;;;;1748114;28;20689;-76
2024/01/12 07:35:07;;;;;;;45.22;40.47;;;;;;;;;;1748013;28;20206;-76
2024/01/12 07:35:58;;;;;;;44.70;40.28;;;;;;;;;;1748030;28;20666;-77
2024/01/12 07:36:49;;;;;;;45.20;40.85;;;;;;;;;;1748391;28;20201;-77
2024/01/12 07:37:41;;;;;;;46.88;42.17;;;;;;;;;;1744144;28;20273;-76
2024/01/12 07:38:32;;;;;;;45.78;41.08;;;;;;;;;;1747503;28;20237;-79
2024/01/12 07:39:23;;;;;;;44.97;40.53;;;;;;;;;;1746962;28;20196;-79
2024/01/12 07:40:15;;;;;;;45.78;40.88;;;;;;;;;;1748676;28;20201;-78
2024/01/12 07:41:06;;;;;;;42.40;38.05;;;;;;;;;;1748308;28;20667;-79
2024/01/12 07:41:57;;;;;;;44.25;39.75;;;;;;;;;;1742235;28;20206;-79
2024/01/12 07:42:49;;;;;;;44.17;39.58;;;;;;;;;;1741503;28;20687;-78
2024/01/12 07:43:40;;;;;;;43.10;38.80;;;;;;;;;;1748108;28;20214;-79
2024/01/12 07:44:31;;;;;;;44.40;40.20;;;;;;;;;;1748548;28;20674;-76
2024/01/12 07:45:23;;;;;;;43.75;39.33;;;;;;;;;;1746958;28;20230;-76
2024/01/12 07:46:16;;;;;;;45.22;40.60;;;;;;;;;;1741106;28;20199;-76
2024/01/12 07:47:08;;;;;;;42.60;38.35;;;;;;;;;;1744582;28;20780;-75
2024/01/12 07:47:59;;;;;;;42.50;38.22;;;;;;;;;;1748154;28;20217;-76
2024/01/12 07:48:53;;;;;;;44.00;39.42;;;;;;;;;;1748097;28;20705;-76
2024/01/12 07:49:45;;;;;;;43.20;39.00;;;;;;;;;;1747574;28;20213;-76
2024/01/12 07:50:37;;;;;;;43.80;39.28;;;;;;;;;;1747152;28;20203;-76
2024/01/12 07:51:28;;;;;;;45.88;41.20;;;;;;;;;;1741109;28;20655;-76
2024/01/12 07:52:20;;;;;;;44.20;39.80;;;;;;;;;;1740977;28;20280;-76
2024/01/12 07:53:11;;;;;;;42.67;38.58;;;;;;;;;;1747615;28;20566;-76
2024/01/12 07:54:03;;;;;;;45.17;40.67;;;;;;;;;;1747974;28;20292;-76
2024/01/12 07:54:54;;;;;;;44.47;40.17;;;;;;;;;;1743113;28;20687;-76
2024/01/12 07:55:45;;;;;;;46.17;41.40;;;;;;;;;;1741491;28;20198;-78
2024/01/12 07:56:37;;;;;;;44.35;39.70;;;;;;;;;;1744604;28;20202;-78
2024/01/12 07:57:28;;;;;;;44.30;39.70;;;;;;;;;;1747037;28;20225;-78
2024/01/12 07:58:20;;;;;;;42.97;38.65;;;;;;;;;;1746414;28;20647;-77
2024/01/12 07:59:12;;;;;;;44.22;39.65;;;;;;;;;;1741354;28;20227;-76
2024/01/12 08:00:04;;;;;;;44.33;39.97;;;;;;;;;;1741571;28;20840;-80
2024/01/12 08:00:56;;;;;;;44.90;40.45;;;;;;;;;;1747569;28;20198;-78
2024/01/12 08:01:51;;;;;;;45.00;40.60;;;;;;;;;;1742018;28;20195;-78
2024/01/12 08:02:42;;;;;;;43.33;39.00;;;;;;;;;;1744236;28;20280;-78
2024/01/12 08:03:34;;;;;;;44.40;39.85;;;;;;;;;;1746046;28;20580;-80
2024/01/12 08:04:27;;;;;;;43.95;39.58;;;;;;;;;;1745165;28;20206;-81
2024/01/12 08:05:19;;;;;;;44.50;39.88;;;;;;;;;;1748336;28;20652;-78
2024/01/12 08:06:10;;;;;;;43.58;39.35;;;;;;;;;;1744570;28;20231;-78
2024/01/12 08:07:03;;;;;;;43.80;39.35;;;;;;;;;;1741115;28;20222;-79
2024/01/12 08:07:55;;;;;;;44.88;40.30;;;;;;;;;;1742681;28;20203;-79
2024/01/12 08:08:46;;;;;;;44.00;39.40;;;;;;;;;;1748125;28;20213;-78
2024/01/12 08:09:38;;;;;;;44.30;39.92;;;;;;;;;;1747864;28;20195;-79
2024/01/12 08:10:29;;;;;;;42.65;38.42;;;;;;;;;;1741556;28;20660;-76
2024/01/12 08:11:20;;;;;;;43.35;39.00;;;;;;;;;;1740926;28;20616;-75
2024/01/12 08:12:12;;;;;;;43.22;38.90;;;;;;;;;;1746896;28;20202;-77
2024/01/12 08:13:04;;;;;;;42.78;38.50;;;;;;;;;;1747891;28;20718;-76
2024/01/12 08:13:55;;;;;;;45.33;40.60;;;;;;;;;;1747763;28;20203;-76
2024/01/12 08:14:47;;;;;;;45.38;40.58;;;;;;;;;;1747799;28;20230;-76
2024/01/12 08:15:38;;;;;;;46.58;41.88;;;;;;;;;;1744986;28;20210;-76
2024/01/12 08:16:31;;;;;;;44.15;39.65;;;;;;;;;;1741029;28;20199;-76
2024/01/12 08:17:22;;;;;;;47.00;42.30;;;;;;;;;;1742281;28;20228;-76
2024/01/12 08:18:14;;;;;;;41.97;37.85;;;;;;;;;;1748118;28;20209;-76
2024/01/12 08:19:05;;;;;;;45.03;40.40;;;;;;;;;;1747908;28;20230;-76
2024/01/12 08:19:58;;;;;;;44.83;40.33;;;;;;;;;;1742955;28;20192;-76
2024/01/12 08:20:50;;;;;;;44.47;39.97;;;;;;;;;;1747947;28;20206;-77
2024/01/12 08:21:42;;;;;;;45.17;40.78;;;;;;;;;;1742051;28;20207;-76
2024/01/12 08:22:33;;;;;;;47.67;42.97;;;;;;;;;;1741003;28;20211;-77
2024/01/12 08:23:24;;;;;;;47.53;42.83;;;;;;;;;;1744883;28;20234;-75
2024/01/12 08:24:16;;;;;;;45.45;40.88;;;;;;;;;;1747150;28;20549;-76
2024/01/12 08:25:07;;;;;;;46.08;41.28;;;;;;;;;;1745161;28;20202;-76
2024/01/12 08:26:00;;;;;;;46.17;41.63;;;;;;;;;;1740876;28;20265;-76
2024/01/12 08:26:51;;;;;;;45.25;40.70;;;;;;;;;;1742078;28;20593;-76
2024/01/12 08:27:43;;;;;;;48.22;43.38;;;;;;;;;;1747817;28;20260;-77
2024/01/12 08:28:34;;;;;;;47.38;42.58;;;;;;;;;;1747856;28;20673;-76
2024/01/12 08:29:25;;;;;;;46.33;41.63;;;;;;;;;;1746973;28;20208;-76
2024/01/12 08:30:17;;;;;;;46.90;41.92;;;;;;;;;;1747143;28;20271;-76
2024/01/12 08:31:08;;;;;;;43.25;38.88;;;;;;;;;;1742153;28;20203;-76
2024/01/12 08:32:00;;;;;;;46.78;42.05;;;;;;;;;;1740116;28;20238;-76
2024/01/12 08:32:52;;;;;;;45.88;41.10;;;;;;;;;;1744114;28;20226;-76
2024/01/12 08:33:48;;;;;;;49.60;44.50;;;;;;;;;;1747773;28;20206;-76
2024/01/12 08:34:39;;;;;;;46.90;42.38;;;;;;;;;;1745146;28;20277;-76
2024/01/12 08:35:34;;;;;;;44.33;39.92;;;;;;;;;;1740701;28;20278;-76
2024/01/12 08:36:25;;;;;;;47.00;42.20;;;;;;;;;;1742186;28;20207;-75
2024/01/12 08:37:17;;;;;;;47.67;42.72;;;;;;;;;;1747656;28;20229;-76
2024/01/12 08:38:08;;;;;;;48.78;43.88;;;;;;;;;;1747581;28;20221;-76
2024/01/12 08:38:59;;;;;;;47.13;42.33;;;;;;;;;;1740639;28;20249;-76
2024/01/12 08:39:51;;;;;;;46.45;41.55;;;;;;;;;;1740499;28;20197;-76
2024/01/12 08:40:42;;;;;;;46.78;42.03;;;;;;;;;;1744208;28;20228;-75
2024/01/12 08:41:34;;;;;;;48.00;43.15;;;;;;;;;;1747926;28;20233;-75
2024/01/12 08:42:25;;;;;;;48.63;43.72;;;;;;;;;;1745851;28;20206;-76
2024/01/12 08:43:19;;;;;;;45.47;40.88;;;;;;;;;;1749545;28;20584;-78
2024/01/12 08:44:11;;;;;;;48.17;43.08;;;;;;;;;;1749014;28;20279;-76
2024/01/12 08:45:03;;;;;;;47.03;42.25;;;;;;;;;;1749161;28;20198;-76
2024/01/12 08:45:55;;;;;;;46.10;41.40;;;;;;;;;;1747796;28;20690;-76
2024/01/12 08:46:46;;;;;;;48.05;43.15;;;;;;;;;;1742009;28;20664;-76
2024/01/12 08:47:38;;;;;;;47.90;42.92;;;;;;;;;;1742027;28;20245;-76
2024/01/12 08:48:29;;;;;;;47.10;42.40;;;;;;;;;;1748711;28;20213;-76
2024/01/12 08:49:20;;;;;;;49.05;43.95;;;;;;;;;;1748589;28;20244;-75
2024/01/12 08:50:13;;;;;;;47.75;42.95;;;;;;;;;;1744513;28;20256;-76
2024/01/12 08:51:06;;;;;;;48.83;43.80;;;;;;;;;;1741943;28;20203;-76
2024/01/12 08:51:57;;;;;;;46.15;41.53;;;;;;;;;;1745883;28;20210;-77
2024/01/12 08:52:49;;;;;;;49.83;44.92;;;;;;;;;;1748850;28;20218;-76
2024/01/12 08:53:40;;;;;;;49.55;44.42;;;;;;;;;;1748773;28;20202;-76
2024/01/12 08:54:31;;;;;;;51.15;45.95;;;;;;;;;;1748872;28;20206;-76
2024/01/12 08:55:23;;;;;;;48.25;43.35;;;;;;;;;;1748176;28;20209;-76
2024/01/12 08:56:14;;;;;;;48.70;43.60;;;;;;;;;;1742080;28;20740;-76
2024/01/12 08:57:06;;;;;;;47.50;42.70;;;;;;;;;;1741884;28;20226;-76
2024/01/12 08:57:57;;;;;;;49.33;44.33;;;;;;;;;;1746556;28;20555;-77
2024/01/12 08:58:49;;;;;;;48.47;43.38;;;;;;;;;;1748833;28;20190;-76
2024/01/12 08:59:40;;;;;;;51.63;46.33;;;;;;;;;;1743662;28;20218;-76
2024/01/12 09:00:33;;;;;;;48.63;43.55;;;;;;;;;;1741981;28;20202;-77
2024/01/12 09:01:24;;;;;;;50.17;45.08;;;;;;;;;;1745158;28;20202;-77
2024/01/12 09:02:15;;;;;;;50.33;45.22;;;;;;;;;;1748860;28;20683;-77
2024/01/12 09:03:07;;;;;;;51.28;46.03;;;;;;;;;;1748666;28;20222;-77
2024/01/12 09:03:59;;;;;;;50.40;45.30;;;;;;;;;;1748823;28;20655;-76
2024/01/12 09:04:51;;;;;;;51.50;46.10;;;;;;;;;;1748593;28;20191;-77
2024/01/12 09:05:42;;;;;;;54.08;48.50;;;;;;;;;;1741940;28;20199;-76
2024/01/12 09:06:34;;;;;;;52.78;47.15;;;;;;;;;;1741989;28;20195;-76
2024/01/12 09:07:26;;;;;;;53.75;48.15;;;;;;;;;;1747681;28;20577;-76
2024/01/12 09:08:18;;;;;;;49.55;44.42;;;;;;;;;;1748737;28;20206;-76
2024/01/12 09:09:10;;;;;;;50.15;44.95;;;;;;;;;;1744362;28;20203;-76
2024/01/12 09:10:01;;;;;;;51.45;46.13;;;;;;;;;;1741442;28;20668;-77
2024/01/12 09:10:52;;;;;;;48.80;43.65;;;;;;;;;;1744680;28;20754;-77
2024/01/12 09:11:45;;;;;;;49.75;44.45;;;;;;;;;;1748790;28;20279;-77
2024/01/12 09:12:36;;;;;;;48.97;43.75;;;;;;;;;;1747281;28;20558;-77
2024/01/12 09:13:28;;;;;;;55.00;46.25;;;;;;;;;;1741833;28;20195;-76
2024/01/12 09:14:19;;;;;;;51.03;45.50;;;;;;;;;;1742821;28;20667;-76
2024/01/12 09:15:10;;;;;;;53.65;43.80;;;;;;;;;;1748656;28;20198;-76
2024/01/12 09:16:02;;;;;;;50.03;44.67;;;;;;;;;;1748740;28;20210;-76
2024/01/12 09:16:54;;;;;;;49.38;44.05;;;;;;;;;;1743320;28;20215;-77
2024/01/12 09:17:45;;;;;;;51.90;46.22;;;;;;;;;;1741706;28;20234;-76
2024/01/12 09:18:37;;;;;;;50.80;45.17;;;;;;;;;;1745443;28;20202;-76
2024/01/12 09:19:28;;;;;;;54.30;45.35;;;;;;;;;;1748619;28;20202;-76
2024/01/12 09:20:19;;;;;;;48.05;42.38;;;;;;;;;;1748667;28;20206;-76
2024/01/12 09:21:14;;;;;;;51.20;44.92;;;;;;;;;;1748737;28;20277;-76
2024/01/12 09:22:07;;;;;;;51.25;45.28;;;;;;;;;;1747581;28;20259;-77
2024/01/12 09:22:59;;;;;;;53.47;46.35;;;;;;;;;;1741699;28;20230;-77
2024/01/12 09:23:50;;;;;;;55.35;46.20;;;;;;;;;;1741831;28;20206;-76
2024/01/12 09:24:41;;;;;;;51.42;45.78;;;;;;;;;;1748485;28;20206;-77
2024/01/12 09:25:33;;;;;;;52.50;45.80;;;;;;;;;;1748674;28;20237;-76
2024/01/12 09:26:24;;;;;;;56.72;46.63;;;;;;;;;;1743376;28;20222;-77
2024/01/12 09:27:15;;;;;;;52.75;47.05;;;;;;;;;;1741713;28;20206;-77
2024/01/12 09:28:07;;;;;;;52.90;47.15;;;;;;;;;;1745295;28;20737;-77
2024/01/12 09:28:58;;;;;;;55.53;47.65;;;;;;;;;;1746845;28;20251;-76
2024/01/12 09:29:50;;;;;;;54.15;47.05;;;;;;;;;;1746258;28;20666;-76
2024/01/12 09:30:42;;;;;;;53.42;46.75;;;;;;;;;;1741719;28;20613;-76
2024/01/12 09:31:33;;;;;;;54.30;48.40;;;;;;;;;;1742312;28;20206;-76
2024/01/12 09:32:25;;;;;;;58.22;48.05;;;;;;;;;;1748617;28;20198;-77
2024/01/12 09:33:16;;;;;;;56.20;48.75;;;;;;;;;;1748718;28;20210;-76
2024/01/12 09:34:08;;;;;;;53.40;47.20;;;;;;;;;;1748622;28;20207;-77
2024/01/12 09:34:59;;;;;;;54.67;47.58;;;;;;;;;;1748739;28;20206;-76
2024/01/12 09:35:50;;;;;;;56.45;48.30;;;;;;;;;;1744061;28;20199;-77
2024/01/12 09:36:42;;;;;;;52.92;47.13;;;;;;;;;;1741641;28;20199;-77
2024/01/12 09:37:35;;;;;;;52.00;46.60;;;;;;;;;;1744564;28;20248;-76
2024/01/12 09:38:26;;;;;;;54.67;48.70;;;;;;;;;;1748591;28;20225;-76
2024/01/12 09:39:18;;;;;;;55.53;49.25;;;;;;;;;;1746782;28;20202;-76
2024/01/12 09:40:10;;;;;;;55.88;49.25;;;;;;;;;;1741556;28;20206;-76
2024/01/12 09:41:02;;;;;;;52.97;46.55;;;;;;;;;;1741697;28;20281;-76
2024/01/12 09:42:00;;;;;;;57.92;50.60;;;;;;;;;;1748607;28;20198;-76
2024/01/12 09:42:52;;;;;;;55.92;48.53;;;;;;;;;;1747277;28;20233;-77
2024/01/12 09:43:45;;;;;;;55.60;49.58;;;;;;;;;;1747546;28;20229;-76
2024/01/12 09:44:37;;;;;;;58.80;51.08;;;;;;;;;;1748498;28;20206;-76
2024/01/12 09:45:29;;;;;;;60.10;50.63;;;;;;;;;;1743203;28;20209;-76
2024/01/12 09:46:23;;;;;;;59.33;51.00;;;;;;;;;;1741680;28;20253;-77
2024/01/12 09:47:16;;;;;;;56.83;48.97;;;;;;;;;;1745833;28;20210;-76
2024/01/12 09:48:08;;;;;;;55.50;49.47;;;;;;;;;;1748679;28;20293;-76
2024/01/12 09:49:00;;;;;;;55.83;47.47;;;;;;;;;;1748510;28;20213;-76
2024/01/12 09:49:52;;;;;;;57.17;50.20;;;;;;;;;;1748214;28;20207;-76
2024/01/12 09:50:45;;;;;;;73.97;61.03;;;;;;;;;;1746847;28;20255;-76
2024/01/12 09:51:37;;;;;;;63.22;54.58;;;;;;;;;;1741662;28;20613;-77
2024/01/12 09:52:28;;;;;;;62.67;55.75;;;;;;;;;;1741453;28;20199;-77
2024/01/12 09:53:22;;;;;;;62.05;55.28;;;;;;;;;;1748397;28;20198;-77
2024/01/12 09:54:13;;;;;;;63.10;54.88;;;;;;;;;;1748509;28;20589;-76
2024/01/12 09:55:05;;;;;;;59.63;53.35;;;;;;;;;;1742355;28;20210;-77
2024/01/12 09:55:57;;;;;;;61.67;54.97;;;;;;;;;;1741532;28;20229;-76
2024/01/12 09:56:48;;;;;;;60.75;54.28;;;;;;;;;;1746101;28;20225;-76
2024/01/12 09:57:40;;;;;;;60.72;52.10;;;;;;;;;;1748372;28;20276;-76
2024/01/12 09:58:32;;;;;;;61.78;55.00;;;;;;;;;;1745428;28;20203;-77
2024/01/12 09:59:25;;;;;;;61.08;54.78;;;;;;;;;;1742223;28;20217;-76
2024/01/12 10:00:16;;;;;;;58.25;51.95;;;;;;;;;;1743196;28;20202;-77
2024/01/12 10:01:08;;;;;;;62.22;52.88;;;;;;;;;;1748575;28;20205;-76
2024/01/12 10:02:00;;;;;;;64.15;52.83;;;;;;;;;;1747532;28;20190;-77
2024/01/12 10:02:51;;;;;;;60.00;53.78;;;;;;;;;;1741450;28;20703;-77
2024/01/12 10:03:43;;;;;;;62.05;55.17;;;;;;;;;;1741426;28;20203;-77
2024/01/12 10:04:35;;;;;;;58.28;51.85;;;;;;;;;;1747309;28;20217;-76
2024/01/12 10:05:27;;;;;;;59.80;53.10;;;;;;;;;;1748407;28;20248;-77
2024/01/12 10:06:18;;;;;;;60.03;51.08;;;;;;;;;;1748413;28;20199;-77
2024/01/12 10:07:10;;;;;;;60.70;52.55;;;;;;;;;;1748420;28;20724;-77
2024/01/12 10:08:01;;;;;;;61.30;52.53;;;;;;;;;;1745651;28;20207;-77
2024/01/12 10:08:53;;;;;;;60.53;52.90;;;;;;;;;;1741465;28;20257;-77
2024/01/12 10:09:45;;;;;;;58.55;51.60;;;;;;;;;;1742329;28;20199;-77
2024/01/12 10:10:37;;;;;;;62.35;52.15;;;;;;;;;;1748471;28;20214;-77
2024/01/12 10:11:29;;;;;;;59.70;52.03;;;;;;;;;;1748313;28;20579;-77
2024/01/12 10:12:20;;;;;;;57.35;50.92;;;;;;;;;;1748288;28;20209;-77
2024/01/12 10:13:11;;;;;;;56.80;49.78;;;;;;;;;;1748380;28;20602;-77
2024/01/12 10:14:04;;;;;;;62.17;53.78;;;;;;;;;;1742993;28;20202;-77
2024/01/12 10:15:02;;;;;;;63.40;53.75;;;;;;;;;;1741461;28;20206;-77
2024/01/12 10:15:54;;;;;;;59.63;52.75;;;;;;;;;;1744576;28;20199;-77
2024/01/12 10:16:52;;;;;;;60.85;51.75;;;;;;;;;;1748299;28;20210;-77
2024/01/12 10:17:44;;;;;;;58.03;49.90;;;;;;;;;;1743938;28;20564;-77
2024/01/12 10:18:35;;;;;;;60.00;52.47;;;;;;;;;;1741495;28;20214;-77
2024/01/12 10:19:28;;;;;;;61.55;52.80;;;;;;;;;;1743705;28;20601;-77
2024/01/12 10:20:22;;;;;;;60.25;53.58;;;;;;;;;;1748317;28;20739;-77
2024/01/12 10:21:14;;;;;;;61.47;54.60;;;;;;;;;;1748400;28;20202;-77
2024/01/12 10:22:06;;;;;;;57.78;51.45;;;;;;;;;;1748390;28;20651;-77
2024/01/12 10:22:59;;;;;;;59.45;53.00;;;;;;;;;;1747936;28;20718;-77
2024/01/12 10:23:51;;;;;;;61.30;52.85;;;;;;;;;;1741468;28;20614;-77
2024/01/12 10:24:44;;;;;;;64.38;55.78;;;;;;;;;;1741389;28;20199;-77
2024/01/12 10:25:35;;;;;;;60.35;53.75;;;;;;;;;;1747618;28;20589;-77
2024/01/12 10:26:27;;;;;;;59.90;52.08;;;;;;;;;;1748279;28;20202;-77
2024/01/12 10:27:18;;;;;;;60.22;53.70;;;;;;;;;;1743465;28;20603;-77
2024/01/12 10:28:18;;;;;;;61.22;52.60;;;;;;;;;;1741345;28;20291;-77
2024/01/12 10:29:09;;;;;;;60.25;52.97;;;;;;;;;;1745670;28;20232;-77
2024/01/12 10:30:01;;;;;;;61.38;51.10;;;;;;;;;;1747842;28;20198;-79
2024/01/12 10:30:52;;;;;;;62.85;52.33;;;;;;;;;;1745521;28;20206;-77
2024/01/12 10:31:44;;;;;;;58.30;51.83;;;;;;;;;;1741280;28;20199;-77
2024/01/12 10:32:36;;;;;;;65.70;53.72;;;;;;;;;;1743400;28;20194;-77
2024/01/12 10:33:27;;;;;;;59.17;51.38;;;;;;;;;;1748204;28;20202;-77
2024/01/12 10:34:20;;;;;;;61.60;51.95;;;;;;;;;;1748192;28;20191;-77
2024/01/12 10:35:13;;;;;;;61.65;53.17;;;;;;;;;;1741372;28;20199;-77
2024/01/12 10:36:06;;;;;;;61.30;52.75;;;;;;;;;;1741237;28;20211;-77
2024/01/12 10:37:00;;;;;;;62.70;52.28;;;;;;;;;;1747096;28;20365;-77
2024/01/12 10:37:53;;;;;;;59.08;51.88;;;;;;;;;;1748169;28;20198;-77
2024/01/12 10:38:46;;;;;;;60.63;51.35;;;;;;;;;;1743389;28;20290;-77
2024/01/12 10:39:38;;;;;;;60.15;53.55;;;;;;;;;;1741008;28;20242;-77
2024/01/12 10:40:31;;;;;;;64.60;54.38;;;;;;;;;;1744622;28;20206;-77
2024/01/12 10:41:22;;;;;;;63.88;54.80;;;;;;;;;;1748146;28;20213;-77
2024/01/12 10:42:13;;;;;;;61.60;54.17;;;;;;;;;;1745950;28;20247;-77
2024/01/12 10:43:06;;;;;;;61.05;52.00;;;;;;;;;;1741264;28;20277;-77
2024/01/12 10:43:59;;;;;;;58.28;51.47;;;;;;;;;;1741786;28;20234;-77
2024/01/12 10:44:51;;;;;;;61.40;52.00;;;;;;;;;;1748129;28;20194;-77
2024/01/12 10:45:45;;;;;;;67.10;54.40;;;;;;;;;;1748095;28;20202;-77
2024/01/12 10:46:40;;;;;;;58.53;51.90;;;;;;;;;;1742331;28;20211;-77
2024/01/12 10:47:33;;;;;;;61.28;52.55;;;;;;;;;;1748189;28;20205;-77
2024/01/12 10:48:25;;;;;;;63.55;54.17;;;;;;;;;;1742199;28;20686;-77
2024/01/12 10:49:17;;;;;;;66.38;53.80;;;;;;;;;;1740981;28;20201;-77
2024/01/12 10:50:11;;;;;;;63.35;53.92;;;;;;;;;;1745462;28;20293;-77
2024/01/12 10:51:03;;;;;;;64.18;55.50;;;;;;;;;;1748162;28;20202;-77
2024/01/12 10:52:01;;;;;;;61.13;53.13;;;;;;;;;;1748123;28;20217;-77
2024/01/12 10:52:57;;;;;;;63.03;54.35;;;;;;;;;;1748053;28;20309;-77
2024/01/12 10:53:53;;;;;;;61.20;53.00;;;;;;;;;;1744758;28;20211;-77
2024/01/12 10:54:50;;;;;;;64.50;54.55;;;;;;;;;;1741267;28;20282;-77
2024/01/12 10:55:47;;;;;;;60.78;53.95;;;;;;;;;;1744349;28;20210;-77
2024/01/12 10:56:38;;;;;;;60.25;53.70;;;;;;;;;;1748098;28;20663;-77
2024/01/12 10:57:32;;;;;;;65.53;56.67;;;;;;;;;;1745717;28;20252;-77
2024/01/12 10:58:23;;;;;;;64.13;55.75;;;;;;;;;;1741063;28;20219;-77
2024/01/12 10:59:16;;;;;;;66.22;54.92;;;;;;;;;;1742180;28;20223;-77
2024/01/12 11:00:08;;;;;;;65.47;55.33;;;;;;;;;;1747919;28;20202;-77
2024/01/12 11:01:00;;;;;;;62.25;54.30;;;;;;;;;;1747975;28;20289;-77
2024/01/12 11:01:52;;;;;;;76.05;54.85;;;;;;;;;;1741236;28;20248;-77